KCKN/CKN METAR and TAF weather

Enter ICAO airport designator
Station Type Date Time Source
KCKN METAR 2018/01/22 11:56 UTC NOAA

KCKN 221156Z AUTO 03009KT 10SM BKN013 M04/M06 A3008 RMK AO2


Station Type Date Time Source
KCKN Decoded METAR 2018/01/22 11:56 UTC NOAA

Crookston Municipal Field, MN, United States (KCKN) 47-51N 096-37W
Jan 22, 2018 - 06:56 AM EST / 2018.01.22 1156 UTC
Wind: from the NNE (030 degrees) at 10 MPH (9 KT):0
Visibility: 10 mile(s):0
Sky conditions: mostly cloudy
Temperature: 24 F (-4 C)
Windchill: 14 F (-10 C):1
Dew Point: 21 F (-6 C)
Relative Humidity: 85%
Pressure (altimeter): 30.08 in. Hg (1018 hPa)
ob: KCKN 221156Z AUTO 03009KT 10SM BKN013 M04/M06 A3008 RMK AO2
cycle: 12

Station Type Date Time Source
KCKN TAF UTC NOAA

Error!


Example: see airport list